sensor_id;sensor_type;location;lat;lon;timestamp;P1;durP1;ratioP1;P2;durP2;ratioP2
7813;SDS011;3952;48.364;16.022;2022-09-20T00:00:46;2.90;;;2.70;;
7813;SDS011;3952;48.364;16.022;2022-09-20T00:03:14;2.70;;;2.50;;
7813;SDS011;3952;48.364;16.022;2022-09-20T00:05:42;3.00;;;2.80;;
7813;SDS011;3952;48.364;16.022;2022-09-20T00:08:13;3.20;;;3.00;;
7813;SDS011;3952;48.364;16.022;2022-09-20T00:10:42;3.23;;;3.03;;
7813;SDS011;3952;48.364;16.022;2022-09-20T00:13:09;3.20;;;2.90;;
7813;SDS011;3952;48.364;16.022;2022-09-20T00:15:43;4.53;;;3.00;;
7813;SDS011;3952;48.364;16.022;2022-09-20T00:18:11;2.90;;;2.70;;
7813;SDS011;3952;48.364;16.022;2022-09-20T00:20:43;3.73;;;2.77;;
7813;SDS011;3952;48.364;16.022;2022-09-20T00:23:11;2.53;;;2.40;;
7813;SDS011;3952;48.364;16.022;2022-09-20T00:25:38;2.93;;;2.77;;
7813;SDS011;3952;48.364;16.022;2022-09-20T00:28:06;3.10;;;2.80;;
7813;SDS011;3952;48.364;16.022;2022-09-20T00:30:34;4.17;;;2.77;;
7813;SDS011;3952;48.364;16.022;2022-09-20T00:33:03;3.63;;;3.33;;
7813;SDS011;3952;48.364;16.022;2022-09-20T00:35:31;3.37;;;3.10;;
7813;SDS011;3952;48.364;16.022;2022-09-20T00:37:57;3.57;;;3.30;;
7813;SDS011;3952;48.364;16.022;2022-09-20T00:40:24;3.80;;;3.50;;
7813;SDS011;3952;48.364;16.022;2022-09-20T00:42:52;4.20;;;3.80;;
7813;SDS011;3952;48.364;16.022;2022-09-20T00:45:20;4.33;;;3.70;;
7813;SDS011;3952;48.364;16.022;2022-09-20T00:47:49;3.93;;;3.63;;
7813;SDS011;3952;48.364;16.022;2022-09-20T00:50:25;4.40;;;4.10;;
7813;SDS011;3952;48.364;16.022;2022-09-20T00:52:58;5.00;;;3.60;;
7813;SDS011;3952;48.364;16.022;2022-09-20T00:55:28;4.20;;;3.90;;
7813;SDS011;3952;48.364;16.022;2022-09-20T00:57:56;4.10;;;3.80;;
7813;SDS011;3952;48.364;16.022;2022-09-20T01:00:25;4.17;;;3.93;;
7813;SDS011;3952;48.364;16.022;2022-09-20T01:02:55;3.90;;;3.70;;
7813;SDS011;3952;48.364;16.022;2022-09-20T01:05:26;4.40;;;4.10;;
7813;SDS011;3952;48.364;16.022;2022-09-20T01:07:54;4.20;;;3.93;;
7813;SDS011;3952;48.364;16.022;2022-09-20T01:10:22;4.93;;;4.00;;
7813;SDS011;3952;48.364;16.022;2022-09-20T01:12:49;4.40;;;4.20;;
7813;SDS011;3952;48.364;16.022;2022-09-20T01:15:18;4.07;;;3.87;;
7813;SDS011;3952;48.364;16.022;2022-09-20T01:17:48;4.13;;;3.83;;
7813;SDS011;3952;48.364;16.022;2022-09-20T01:20:18;4.50;;;4.20;;
7813;SDS011;3952;48.364;16.022;2022-09-20T01:23:15;4.40;;;4.00;;
7813;SDS011;3952;48.364;16.022;2022-09-20T01:28:48;4.00;;;3.73;;
7813;SDS011;3952;48.364;16.022;2022-09-20T01:31:22;3.93;;;3.73;;
7813;SDS011;3952;48.364;16.022;2022-09-20T01:33:52;6.67;;;4.37;;
7813;SDS011;3952;48.364;16.022;2022-09-20T01:36:24;3.53;;;3.33;;
7813;SDS011;3952;48.364;16.022;2022-09-20T01:38:59;4.07;;;3.77;;
7813;SDS011;3952;48.364;16.022;2022-09-20T01:41:34;4.37;;;3.93;;
7813;SDS011;3952;48.364;16.022;2022-09-20T01:44:10;4.47;;;4.17;;
7813;SDS011;3952;48.364;16.022;2022-09-20T01:46:44;4.17;;;3.97;;
7813;SDS011;3952;48.364;16.022;2022-09-20T01:49:18;4.50;;;4.20;;
7813;SDS011;3952;48.364;16.022;2022-09-20T01:52:09;4.33;;;3.93;;
7813;SDS011;3952;48.364;16.022;2022-09-20T01:58:11;4.40;;;4.00;;
7813;SDS011;3952;48.364;16.022;2022-09-20T02:04:15;3.97;;;3.77;;
7813;SDS011;3952;48.364;16.022;2022-09-20T02:07:07;4.90;;;4.40;;
7813;SDS011;3952;48.364;16.022;2022-09-20T02:10:02;4.17;;;3.80;;
7813;SDS011;3952;48.364;16.022;2022-09-20T02:12:52;4.00;;;3.70;;
7813;SDS011;3952;48.364;16.022;2022-09-20T02:15:32;4.43;;;4.13;;
7813;SDS011;3952;48.364;16.022;2022-09-20T02:18:16;4.27;;;3.93;;
7813;SDS011;3952;48.364;16.022;2022-09-20T02:20:59;4.40;;;4.10;;
7813;SDS011;3952;48.364;16.022;2022-09-20T02:23:35;4.50;;;4.20;;
7813;SDS011;3952;48.364;16.022;2022-09-20T02:29:09;5.40;;;4.97;;
7813;SDS011;3952;48.364;16.022;2022-09-20T02:31:53;4.60;;;4.20;;
7813;SDS011;3952;48.364;16.022;2022-09-20T02:37:54;4.60;;;4.20;;
7813;SDS011;3952;48.364;16.022;2022-09-20T02:40:37;4.50;;;4.20;;
7813;SDS011;3952;48.364;16.022;2022-09-20T02:43:25;4.53;;;4.23;;
7813;SDS011;3952;48.364;16.022;2022-09-20T02:46:00;4.37;;;4.00;;
7813;SDS011;3952;48.364;16.022;2022-09-20T02:48:37;4.10;;;3.80;;
7813;SDS011;3952;48.364;16.022;2022-09-20T02:51:13;4.00;;;3.80;;
7813;SDS011;3952;48.364;16.022;2022-09-20T02:53:50;3.90;;;3.70;;
7813;SDS011;3952;48.364;16.022;2022-09-20T02:56:28;3.77;;;3.47;;
7813;SDS011;3952;48.364;16.022;2022-09-20T02:59:04;3.67;;;3.50;;
7813;SDS011;3952;48.364;16.022;2022-09-20T03:01:43;3.90;;;3.70;;
7813;SDS011;3952;48.364;16.022;2022-09-20T03:04:20;3.27;;;3.07;;
7813;SDS011;3952;48.364;16.022;2022-09-20T03:06:59;3.90;;;3.60;;
7813;SDS011;3952;48.364;16.022;2022-09-20T03:09:33;3.57;;;3.37;;
7813;SDS011;3952;48.364;16.022;2022-09-20T03:12:11;3.47;;;3.07;;
7813;SDS011;3952;48.364;16.022;2022-09-20T03:14:44;3.93;;;3.63;;
7813;SDS011;3952;48.364;16.022;2022-09-20T03:17:21;3.67;;;3.47;;
7813;SDS011;3952;48.364;16.022;2022-09-20T03:20:04;3.90;;;3.60;;
7813;SDS011;3952;48.364;16.022;2022-09-20T03:22:45;3.37;;;3.17;;
7813;SDS011;3952;48.364;16.022;2022-09-20T03:25:24;3.20;;;2.93;;
7813;SDS011;3952;48.364;16.022;2022-09-20T03:28:12;3.17;;;3.07;;
7813;SDS011;3952;48.364;16.022;2022-09-20T03:31:03;3.93;;;3.50;;
7813;SDS011;3952;48.364;16.022;2022-09-20T03:33:42;3.27;;;3.13;;
7813;SDS011;3952;48.364;16.022;2022-09-20T03:36:22;4.00;;;3.80;;
7813;SDS011;3952;48.364;16.022;2022-09-20T03:39:23;3.43;;;3.23;;
7813;SDS011;3952;48.364;16.022;2022-09-20T03:42:07;3.73;;;3.53;;
7813;SDS011;3952;48.364;16.022;2022-09-20T03:44:51;3.27;;;3.07;;
7813;SDS011;3952;48.364;16.022;2022-09-20T03:47:38;3.53;;;3.40;;
7813;SDS011;3952;48.364;16.022;2022-09-20T03:50:32;3.40;;;3.20;;
7813;SDS011;3952;48.364;16.022;2022-09-20T03:53:29;3.63;;;3.33;;
7813;SDS011;3952;48.364;16.022;2022-09-20T03:59:32;3.50;;;3.20;;
7813;SDS011;3952;48.364;16.022;2022-09-20T04:02:17;4.47;;;3.97;;
7813;SDS011;3952;48.364;16.022;2022-09-20T04:04:54;4.77;;;3.63;;
7813;SDS011;3952;48.364;16.022;2022-09-20T04:07:26;3.90;;;3.53;;
7813;SDS011;3952;48.364;16.022;2022-09-20T04:10:15;4.37;;;4.17;;
7813;SDS011;3952;48.364;16.022;2022-09-20T04:12:58;4.00;;;3.80;;
7813;SDS011;3952;48.364;16.022;2022-09-20T04:15:50;3.70;;;3.50;;
7813;SDS011;3952;48.364;16.022;2022-09-20T04:18:29;4.57;;;4.20;;
7813;SDS011;3952;48.364;16.022;2022-09-20T04:21:03;3.60;;;3.40;;
7813;SDS011;3952;48.364;16.022;2022-09-20T04:23:38;3.67;;;3.47;;
7813;SDS011;3952;48.364;16.022;2022-09-20T04:26:11;3.87;;;3.67;;
7813;SDS011;3952;48.364;16.022;2022-09-20T04:28:43;3.90;;;3.70;;
7813;SDS011;3952;48.364;16.022;2022-09-20T04:31:18;3.70;;;3.50;;
7813;SDS011;3952;48.364;16.022;2022-09-20T04:33:54;3.77;;;3.57;;
7813;SDS011;3952;48.364;16.022;2022-09-20T04:36:34;3.50;;;3.40;;
7813;SDS011;3952;48.364;16.022;2022-09-20T04:39:17;3.80;;;3.50;;
7813;SDS011;3952;48.364;16.022;2022-09-20T04:41:57;3.40;;;3.20;;
7813;SDS011;3952;48.364;16.022;2022-09-20T04:51:14;3.30;;;3.10;;
7813;SDS011;3952;48.364;16.022;2022-09-20T04:57:06;3.40;;;2.40;;
7813;SDS011;3952;48.364;16.022;2022-09-20T04:59:56;2.53;;;2.40;;
7813;SDS011;3952;48.364;16.022;2022-09-20T05:02:41;2.23;;;2.03;;
7813;SDS011;3952;48.364;16.022;2022-09-20T05:05:38;1.80;;;1.70;;
7813;SDS011;3952;48.364;16.022;2022-09-20T05:08:42;1.40;;;1.30;;
7813;SDS011;3952;48.364;16.022;2022-09-20T05:11:50;1.27;;;1.17;;
7813;SDS011;3952;48.364;16.022;2022-09-20T05:14:37;1.30;;;1.30;;
7813;SDS011;3952;48.364;16.022;2022-09-20T05:17:23;1.40;;;1.40;;
7813;SDS011;3952;48.364;16.022;2022-09-20T05:20:08;1.70;;;1.60;;
7813;SDS011;3952;48.364;16.022;2022-09-20T05:23:01;1.47;;;1.37;;
7813;SDS011;3952;48.364;16.022;2022-09-20T05:25:52;1.50;;;1.50;;
7813;SDS011;3952;48.364;16.022;2022-09-20T05:28:33;1.67;;;1.57;;
7813;SDS011;3952;48.364;16.022;2022-09-20T05:31:08;1.77;;;1.67;;
7813;SDS011;3952;48.364;16.022;2022-09-20T05:33:42;1.50;;;1.40;;
7813;SDS011;3952;48.364;16.022;2022-09-20T05:36:16;1.50;;;1.50;;
7813;SDS011;3952;48.364;16.022;2022-09-20T05:38:59;2.00;;;1.90;;
7813;SDS011;3952;48.364;16.022;2022-09-20T05:41:36;1.87;;;1.83;;
7813;SDS011;3952;48.364;16.022;2022-09-20T05:44:10;2.40;;;2.20;;
7813;SDS011;3952;48.364;16.022;2022-09-20T05:46:52;3.63;;;2.20;;
7813;SDS011;3952;48.364;16.022;2022-09-20T05:49:30;2.23;;;2.13;;
7813;SDS011;3952;48.364;16.022;2022-09-20T05:52:15;2.30;;;2.20;;
7813;SDS011;3952;48.364;16.022;2022-09-20T05:55:07;2.60;;;2.13;;
7813;SDS011;3952;48.364;16.022;2022-09-20T05:58:10;2.40;;;2.30;;
7813;SDS011;3952;48.364;16.022;2022-09-20T06:00:47;1.93;;;1.83;;
7813;SDS011;3952;48.364;16.022;2022-09-20T06:03:21;2.03;;;1.93;;
7813;SDS011;3952;48.364;16.022;2022-09-20T06:06:01;1.90;;;1.80;;
7813;SDS011;3952;48.364;16.022;2022-09-20T06:08:48;2.70;;;1.83;;
7813;SDS011;3952;48.364;16.022;2022-09-20T06:14:45;2.67;;;2.57;;
7813;SDS011;3952;48.364;16.022;2022-09-20T06:17:23;2.47;;;2.27;;
7813;SDS011;3952;48.364;16.022;2022-09-20T06:19:58;2.40;;;2.20;;
7813;SDS011;3952;48.364;16.022;2022-09-20T06:22:36;1.83;;;1.73;;
7813;SDS011;3952;48.364;16.022;2022-09-20T06:25:13;1.80;;;1.70;;
7813;SDS011;3952;48.364;16.022;2022-09-20T06:27:45;1.73;;;1.50;;
7813;SDS011;3952;48.364;16.022;2022-09-20T06:30:20;1.47;;;1.37;;
7813;SDS011;3952;48.364;16.022;2022-09-20T06:32:54;4.00;;;1.70;;
7813;SDS011;3952;48.364;16.022;2022-09-20T06:35:23;1.13;;;1.10;;
7813;SDS011;3952;48.364;16.022;2022-09-20T06:37:58;1.70;;;1.07;;
7813;SDS011;3952;48.364;16.022;2022-09-20T06:40:54;1.10;;;0.80;;
7813;SDS011;3952;48.364;16.022;2022-09-20T06:43:38;0.60;;;0.60;;
7813;SDS011;3952;48.364;16.022;2022-09-20T06:46:07;1.60;;;0.70;;
7813;SDS011;3952;48.364;16.022;2022-09-20T06:48:34;0.70;;;0.70;;
7813;SDS011;3952;48.364;16.022;2022-09-20T06:51:04;0.50;;;0.50;;
7813;SDS011;3952;48.364;16.022;2022-09-20T06:53:32;0.40;;;0.40;;
7813;SDS011;3952;48.364;16.022;2022-09-20T06:56:02;2.23;;;0.63;;
7813;SDS011;3952;48.364;16.022;2022-09-20T06:58:30;0.47;;;0.47;;
7813;SDS011;3952;48.364;16.022;2022-09-20T07:00:57;0.60;;;0.60;;
7813;SDS011;3952;48.364;16.022;2022-09-20T07:03:25;1.13;;;0.50;;
7813;SDS011;3952;48.364;16.022;2022-09-20T07:05:53;0.50;;;0.50;;
7813;SDS011;3952;48.364;16.022;2022-09-20T07:08:21;0.50;;;0.50;;
7813;SDS011;3952;48.364;16.022;2022-09-20T07:10:48;0.73;;;0.60;;
7813;SDS011;3952;48.364;16.022;2022-09-20T07:13:16;0.80;;;0.60;;
7813;SDS011;3952;48.364;16.022;2022-09-20T07:15:45;1.23;;;0.43;;
7813;SDS011;3952;48.364;16.022;2022-09-20T07:18:12;1.10;;;0.50;;
7813;SDS011;3952;48.364;16.022;2022-09-20T07:20:41;0.40;;;0.40;;
7813;SDS011;3952;48.364;16.022;2022-09-20T07:23:08;0.50;;;0.43;;
7813;SDS011;3952;48.364;16.022;2022-09-20T07:25:36;0.33;;;0.33;;
7813;SDS011;3952;48.364;16.022;2022-09-20T07:28:03;0.97;;;0.53;;
7813;SDS011;3952;48.364;16.022;2022-09-20T07:30:30;0.80;;;0.50;;
7813;SDS011;3952;48.364;16.022;2022-09-20T07:32:57;0.57;;;0.57;;
7813;SDS011;3952;48.364;16.022;2022-09-20T07:35:24;1.47;;;1.47;;
7813;SDS011;3952;48.364;16.022;2022-09-20T07:37:56;1.47;;;1.47;;
7813;SDS011;3952;48.364;16.022;2022-09-20T07:40:24;1.67;;;1.57;;
7813;SDS011;3952;48.364;16.022;2022-09-20T07:42:51;1.73;;;1.63;;
7813;SDS011;3952;48.364;16.022;2022-09-20T07:45:18;1.47;;;1.37;;
7813;SDS011;3952;48.364;16.022;2022-09-20T07:47:45;1.83;;;1.37;;
7813;SDS011;3952;48.364;16.022;2022-09-20T07:50:13;0.77;;;0.77;;
7813;SDS011;3952;48.364;16.022;2022-09-20T07:52:40;0.67;;;0.50;;
7813;SDS011;3952;48.364;16.022;2022-09-20T07:55:09;0.60;;;0.60;;
7813;SDS011;3952;48.364;16.022;2022-09-20T07:57:36;1.13;;;1.07;;
7813;SDS011;3952;48.364;16.022;2022-09-20T08:00:04;1.07;;;0.97;;
7813;SDS011;3952;48.364;16.022;2022-09-20T08:02:33;1.80;;;0.50;;
7813;SDS011;3952;48.364;16.022;2022-09-20T08:05:01;0.90;;;0.63;;
7813;SDS011;3952;48.364;16.022;2022-09-20T08:07:28;0.83;;;0.67;;
7813;SDS011;3952;48.364;16.022;2022-09-20T08:09:56;0.97;;;0.63;;
7813;SDS011;3952;48.364;16.022;2022-09-20T08:12:25;0.33;;;0.33;;
7813;SDS011;3952;48.364;16.022;2022-09-20T08:14:52;1.83;;;0.90;;
7813;SDS011;3952;48.364;16.022;2022-09-20T08:17:20;1.03;;;0.63;;
7813;SDS011;3952;48.364;16.022;2022-09-20T08:19:47;1.97;;;0.40;;
7813;SDS011;3952;48.364;16.022;2022-09-20T08:22:17;0.73;;;0.53;;
7813;SDS011;3952;48.364;16.022;2022-09-20T08:24:44;0.93;;;0.60;;
7813;SDS011;3952;48.364;16.022;2022-09-20T08:27:11;0.40;;;0.40;;
7813;SDS011;3952;48.364;16.022;2022-09-20T08:29:40;0.60;;;0.60;;
7813;SDS011;3952;48.364;16.022;2022-09-20T08:32:07;3.40;;;0.63;;
7813;SDS011;3952;48.364;16.022;2022-09-20T08:34:35;0.53;;;0.50;;
7813;SDS011;3952;48.364;16.022;2022-09-20T08:37:03;0.47;;;0.30;;
7813;SDS011;3952;48.364;16.022;2022-09-20T08:39:31;0.50;;;0.40;;
7813;SDS011;3952;48.364;16.022;2022-09-20T08:42:00;0.40;;;0.40;;
7813;SDS011;3952;48.364;16.022;2022-09-20T08:44:41;0.50;;;0.50;;
7813;SDS011;3952;48.364;16.022;2022-09-20T08:47:16;0.87;;;0.53;;
7813;SDS011;3952;48.364;16.022;2022-09-20T08:49:46;0.50;;;0.50;;
7813;SDS011;3952;48.364;16.022;2022-09-20T08:52:15;0.67;;;0.60;;
7813;SDS011;3952;48.364;16.022;2022-09-20T08:54:45;0.80;;;0.70;;
7813;SDS011;3952;48.364;16.022;2022-09-20T08:57:13;1.30;;;0.60;;
7813;SDS011;3952;48.364;16.022;2022-09-20T08:59:44;0.70;;;0.60;;
7813;SDS011;3952;48.364;16.022;2022-09-20T09:02:13;0.97;;;0.60;;
7813;SDS011;3952;48.364;16.022;2022-09-20T09:04:42;0.80;;;0.80;;
7813;SDS011;3952;48.364;16.022;2022-09-20T09:07:11;0.93;;;0.40;;
7813;SDS011;3952;48.364;16.022;2022-09-20T09:09:40;1.17;;;0.43;;
7813;SDS011;3952;48.364;16.022;2022-09-20T09:12:15;0.90;;;0.40;;
7813;SDS011;3952;48.364;16.022;2022-09-20T09:14:47;0.87;;;0.50;;
7813;SDS011;3952;48.364;16.022;2022-09-20T09:17:20;1.33;;;0.73;;
7813;SDS011;3952;48.364;16.022;2022-09-20T09:19:49;1.63;;;0.60;;
7813;SDS011;3952;48.364;16.022;2022-09-20T09:22:22;0.57;;;0.57;;
7813;SDS011;3952;48.364;16.022;2022-09-20T09:27:59;2.40;;;0.53;;
7813;SDS011;3952;48.364;16.022;2022-09-20T09:30:32;1.00;;;0.53;;
7813;SDS011;3952;48.364;16.022;2022-09-20T09:33:14;2.47;;;0.50;;
7813;SDS011;3952;48.364;16.022;2022-09-20T09:35:44;0.40;;;0.40;;
7813;SDS011;3952;48.364;16.022;2022-09-20T09:38:19;0.50;;;0.50;;
7813;SDS011;3952;48.364;16.022;2022-09-20T09:40:48;2.10;;;0.60;;
7813;SDS011;3952;48.364;16.022;2022-09-20T09:43:18;1.37;;;0.67;;
7813;SDS011;3952;48.364;16.022;2022-09-20T09:45:52;0.83;;;0.60;;
7813;SDS011;3952;48.364;16.022;2022-09-20T09:48:22;1.13;;;0.50;;
7813;SDS011;3952;48.364;16.022;2022-09-20T09:51:05;0.80;;;0.57;;
7813;SDS011;3952;48.364;16.022;2022-09-20T09:53:34;0.47;;;0.47;;
7813;SDS011;3952;48.364;16.022;2022-09-20T09:56:06;0.40;;;0.40;;
7813;SDS011;3952;48.364;16.022;2022-09-20T09:58:50;1.00;;;0.47;;
7813;SDS011;3952;48.364;16.022;2022-09-20T10:01:32;0.53;;;0.50;;
7813;SDS011;3952;48.364;16.022;2022-09-20T10:04:11;1.80;;;0.60;;
7813;SDS011;3952;48.364;16.022;2022-09-20T10:06:47;1.03;;;0.50;;
7813;SDS011;3952;48.364;16.022;2022-09-20T10:09:26;1.50;;;0.30;;
7813;SDS011;3952;48.364;16.022;2022-09-20T10:15:03;0.33;;;0.33;;
7813;SDS011;3952;48.364;16.022;2022-09-20T10:17:50;0.60;;;0.60;;
7813;SDS011;3952;48.364;16.022;2022-09-20T10:20:34;1.87;;;0.47;;
7813;SDS011;3952;48.364;16.022;2022-09-20T10:23:19;0.30;;;0.30;;
7813;SDS011;3952;48.364;16.022;2022-09-20T10:26:02;0.87;;;0.50;;
7813;SDS011;3952;48.364;16.022;2022-09-20T10:28:40;0.43;;;0.40;;
7813;SDS011;3952;48.364;16.022;2022-09-20T10:31:21;1.07;;;0.60;;
7813;SDS011;3952;48.364;16.022;2022-09-20T10:34:07;0.83;;;0.60;;
7813;SDS011;3952;48.364;16.022;2022-09-20T10:36:48;0.50;;;0.50;;
7813;SDS011;3952;48.364;16.022;2022-09-20T10:39:21;0.40;;;0.40;;
7813;SDS011;3952;48.364;16.022;2022-09-20T10:41:57;0.60;;;0.40;;
7813;SDS011;3952;48.364;16.022;2022-09-20T10:44:51;0.77;;;0.47;;
7813;SDS011;3952;48.364;16.022;2022-09-20T10:47:30;0.60;;;0.60;;
7813;SDS011;3952;48.364;16.022;2022-09-20T10:50:06;0.60;;;0.40;;
7813;SDS011;3952;48.364;16.022;2022-09-20T10:52:52;0.53;;;0.53;;
7813;SDS011;3952;48.364;16.022;2022-09-20T10:55:33;0.90;;;0.40;;
7813;SDS011;3952;48.364;16.022;2022-09-20T11:01:14;0.40;;;0.40;;
7813;SDS011;3952;48.364;16.022;2022-09-20T11:06:53;0.77;;;0.50;;
7813;SDS011;3952;48.364;16.022;2022-09-20T11:09:28;1.07;;;0.70;;
7813;SDS011;3952;48.364;16.022;2022-09-20T11:12:02;1.80;;;0.70;;
7813;SDS011;3952;48.364;16.022;2022-09-20T11:14:40;0.77;;;0.70;;
7813;SDS011;3952;48.364;16.022;2022-09-20T11:17:14;0.80;;;0.70;;
7813;SDS011;3952;48.364;16.022;2022-09-20T11:19:48;0.80;;;0.80;;
7813;SDS011;3952;48.364;16.022;2022-09-20T11:22:24;0.97;;;0.87;;
7813;SDS011;3952;48.364;16.022;2022-09-20T11:24:59;0.90;;;0.90;;
7813;SDS011;3952;48.364;16.022;2022-09-20T11:27:31;0.87;;;0.87;;
7813;SDS011;3952;48.364;16.022;2022-09-20T11:30:04;0.50;;;0.50;;
7813;SDS011;3952;48.364;16.022;2022-09-20T11:32:34;0.93;;;0.80;;
7813;SDS011;3952;48.364;16.022;2022-09-20T11:35:13;0.70;;;0.70;;
7813;SDS011;3952;48.364;16.022;2022-09-20T11:38:02;0.53;;;0.53;;
7813;SDS011;3952;48.364;16.022;2022-09-20T11:40:43;1.03;;;1.00;;
7813;SDS011;3952;48.364;16.022;2022-09-20T11:43:16;0.90;;;0.90;;
7813;SDS011;3952;48.364;16.022;2022-09-20T11:45:45;1.33;;;0.70;;
7813;SDS011;3952;48.364;16.022;2022-09-20T11:48:17;0.73;;;0.73;;
7813;SDS011;3952;48.364;16.022;2022-09-20T11:56:53;0.70;;;0.70;;
7813;SDS011;3952;48.364;16.022;2022-09-20T11:59:25;0.90;;;0.80;;
7813;SDS011;3952;48.364;16.022;2022-09-20T12:01:55;0.70;;;0.70;;
7813;SDS011;3952;48.364;16.022;2022-09-20T12:04:26;0.70;;;0.67;;
7813;SDS011;3952;48.364;16.022;2022-09-20T12:06:57;0.40;;;0.40;;
7813;SDS011;3952;48.364;16.022;2022-09-20T12:09:28;0.50;;;0.50;;
7813;SDS011;3952;48.364;16.022;2022-09-20T12:11:58;0.40;;;0.40;;
7813;SDS011;3952;48.364;16.022;2022-09-20T12:14:38;0.23;;;0.23;;
7813;SDS011;3952;48.364;16.022;2022-09-20T12:17:09;0.20;;;0.20;;
7813;SDS011;3952;48.364;16.022;2022-09-20T12:32:45;0.30;;;0.30;;
7813;SDS011;3952;48.364;16.022;2022-09-20T12:38:28;0.40;;;0.33;;
7813;SDS011;3952;48.364;16.022;2022-09-20T12:41:15;0.70;;;0.50;;
7813;SDS011;3952;48.364;16.022;2022-09-20T12:43:50;0.50;;;0.50;;
7813;SDS011;3952;48.364;16.022;2022-09-20T12:46:39;0.47;;;0.40;;
7813;SDS011;3952;48.364;16.022;2022-09-20T12:52:31;0.50;;;0.50;;
7813;SDS011;3952;48.364;16.022;2022-09-20T12:58:17;0.40;;;0.40;;
7813;SDS011;3952;48.364;16.022;2022-09-20T13:00:49;0.73;;;0.50;;
7813;SDS011;3952;48.364;16.022;2022-09-20T13:03:37;0.50;;;0.50;;
7813;SDS011;3952;48.364;16.022;2022-09-20T13:06:22;0.40;;;0.40;;
7813;SDS011;3952;48.364;16.022;2022-09-20T13:09:01;0.80;;;0.60;;
7813;SDS011;3952;48.364;16.022;2022-09-20T13:11:33;0.60;;;0.60;;
7813;SDS011;3952;48.364;16.022;2022-09-20T13:14:05;0.60;;;0.50;;
7813;SDS011;3952;48.364;16.022;2022-09-20T13:16:45;0.93;;;0.50;;
7813;SDS011;3952;48.364;16.022;2022-09-20T13:19:17;0.50;;;0.50;;
7813;SDS011;3952;48.364;16.022;2022-09-20T13:21:49;0.30;;;0.30;;
7813;SDS011;3952;48.364;16.022;2022-09-20T13:24:22;0.40;;;0.40;;
7813;SDS011;3952;48.364;16.022;2022-09-20T13:26:52;0.70;;;0.60;;
7813;SDS011;3952;48.364;16.022;2022-09-20T13:29:21;0.50;;;0.50;;
7813;SDS011;3952;48.364;16.022;2022-09-20T13:31:56;0.80;;;0.40;;
7813;SDS011;3952;48.364;16.022;2022-09-20T13:34:41;0.70;;;0.70;;
7813;SDS011;3952;48.364;16.022;2022-09-20T13:37:12;1.07;;;0.70;;
7813;SDS011;3952;48.364;16.022;2022-09-20T13:39:45;1.17;;;0.63;;
7813;SDS011;3952;48.364;16.022;2022-09-20T13:42:13;0.63;;;0.60;;
7813;SDS011;3952;48.364;16.022;2022-09-20T13:44:43;1.17;;;0.70;;
7813;SDS011;3952;48.364;16.022;2022-09-20T13:47:24;4.50;;;1.00;;
7813;SDS011;3952;48.364;16.022;2022-09-20T13:49:53;1.40;;;0.90;;
7813;SDS011;3952;48.364;16.022;2022-09-20T13:52:27;1.00;;;0.83;;
7813;SDS011;3952;48.364;16.022;2022-09-20T13:54:55;1.03;;;0.63;;
7813;SDS011;3952;48.364;16.022;2022-09-20T13:57:25;1.87;;;0.80;;
7813;SDS011;3952;48.364;16.022;2022-09-20T13:59:54;0.73;;;0.73;;
7813;SDS011;3952;48.364;16.022;2022-09-20T14:02:25;1.03;;;1.00;;
7813;SDS011;3952;48.364;16.022;2022-09-20T14:04:55;2.17;;;1.00;;
7813;SDS011;3952;48.364;16.022;2022-09-20T14:07:24;1.00;;;0.57;;
7813;SDS011;3952;48.364;16.022;2022-09-20T14:09:54;0.60;;;0.60;;
7813;SDS011;3952;48.364;16.022;2022-09-20T14:12:22;0.77;;;0.70;;
7813;SDS011;3952;48.364;16.022;2022-09-20T14:14:50;0.50;;;0.43;;
7813;SDS011;3952;48.364;16.022;2022-09-20T14:17:19;0.70;;;0.70;;
7813;SDS011;3952;48.364;16.022;2022-09-20T14:19:50;1.70;;;1.07;;
7813;SDS011;3952;48.364;16.022;2022-09-20T14:22:21;0.50;;;0.50;;
7813;SDS011;3952;48.364;16.022;2022-09-20T14:24:58;0.57;;;0.57;;
7813;SDS011;3952;48.364;16.022;2022-09-20T14:27:27;3.60;;;0.70;;
7813;SDS011;3952;48.364;16.022;2022-09-20T14:29:55;0.70;;;0.70;;
7813;SDS011;3952;48.364;16.022;2022-09-20T14:32:35;0.60;;;0.60;;
7813;SDS011;3952;48.364;16.022;2022-09-20T14:35:11;1.07;;;1.00;;
7813;SDS011;3952;48.364;16.022;2022-09-20T14:37:43;3.97;;;1.30;;
7813;SDS011;3952;48.364;16.022;2022-09-20T14:40:17;4.77;;;1.30;;
7813;SDS011;3952;48.364;16.022;2022-09-20T14:42:48;1.90;;;0.60;;
7813;SDS011;3952;48.364;16.022;2022-09-20T14:45:21;2.10;;;0.70;;
7813;SDS011;3952;48.364;16.022;2022-09-20T14:47:55;0.87;;;0.77;;
7813;SDS011;3952;48.364;16.022;2022-09-20T14:50:27;1.10;;;0.90;;
7813;SDS011;3952;48.364;16.022;2022-09-20T14:55:55;0.60;;;0.50;;
7813;SDS011;3952;48.364;16.022;2022-09-20T14:58:25;0.80;;;0.70;;
7813;SDS011;3952;48.364;16.022;2022-09-20T15:00:53;1.60;;;0.90;;
7813;SDS011;3952;48.364;16.022;2022-09-20T15:03:26;1.13;;;0.80;;
7813;SDS011;3952;48.364;16.022;2022-09-20T15:05:57;0.87;;;0.70;;
7813;SDS011;3952;48.364;16.022;2022-09-20T15:08:25;0.80;;;0.80;;
7813;SDS011;3952;48.364;16.022;2022-09-20T15:10:52;2.97;;;0.60;;
7813;SDS011;3952;48.364;16.022;2022-09-20T15:13:20;0.67;;;0.67;;
7813;SDS011;3952;48.364;16.022;2022-09-20T15:15:47;0.50;;;0.40;;
7813;SDS011;3952;48.364;16.022;2022-09-20T15:18:20;0.77;;;0.70;;
7813;SDS011;3952;48.364;16.022;2022-09-20T15:20:49;0.63;;;0.63;;
7813;SDS011;3952;48.364;16.022;2022-09-20T15:23:18;1.10;;;0.63;;
7813;SDS011;3952;48.364;16.022;2022-09-20T15:25:48;0.83;;;0.80;;
7813;SDS011;3952;48.364;16.022;2022-09-20T15:28:19;0.73;;;0.53;;
7813;SDS011;3952;48.364;16.022;2022-09-20T15:30:47;0.60;;;0.60;;
7813;SDS011;3952;48.364;16.022;2022-09-20T15:33:15;0.80;;;0.80;;
7813;SDS011;3952;48.364;16.022;2022-09-20T15:35:44;0.60;;;0.60;;
7813;SDS011;3952;48.364;16.022;2022-09-20T15:38:11;0.87;;;0.87;;
7813;SDS011;3952;48.364;16.022;2022-09-20T15:40:44;0.73;;;0.73;;
7813;SDS011;3952;48.364;16.022;2022-09-20T15:43:14;0.50;;;0.50;;
7813;SDS011;3952;48.364;16.022;2022-09-20T15:45:46;0.60;;;0.60;;
7813;SDS011;3952;48.364;16.022;2022-09-20T15:48:15;2.53;;;0.90;;
7813;SDS011;3952;48.364;16.022;2022-09-20T15:50:49;0.63;;;0.40;;
7813;SDS011;3952;48.364;16.022;2022-09-20T15:53:26;0.97;;;0.70;;
7813;SDS011;3952;48.364;16.022;2022-09-20T15:55:57;1.83;;;0.80;;
7813;SDS011;3952;48.364;16.022;2022-09-20T15:58:27;1.13;;;1.03;;
7813;SDS011;3952;48.364;16.022;2022-09-20T16:01:00;2.77;;;1.03;;
7813;SDS011;3952;48.364;16.022;2022-09-20T16:03:29;0.60;;;0.60;;
7813;SDS011;3952;48.364;16.022;2022-09-20T16:05:57;0.60;;;0.60;;
7813;SDS011;3952;48.364;16.022;2022-09-20T16:08:25;2.60;;;0.80;;
7813;SDS011;3952;48.364;16.022;2022-09-20T16:10:55;0.87;;;0.57;;
7813;SDS011;3952;48.364;16.022;2022-09-20T16:13:24;0.70;;;0.70;;
7813;SDS011;3952;48.364;16.022;2022-09-20T16:15:52;0.60;;;0.60;;
7813;SDS011;3952;48.364;16.022;2022-09-20T16:18:20;0.70;;;0.70;;
7813;SDS011;3952;48.364;16.022;2022-09-20T16:21:06;0.70;;;0.70;;
7813;SDS011;3952;48.364;16.022;2022-09-20T16:23:36;0.70;;;0.70;;
7813;SDS011;3952;48.364;16.022;2022-09-20T16:26:05;0.70;;;0.70;;
7813;SDS011;3952;48.364;16.022;2022-09-20T16:28:36;1.43;;;0.87;;
7813;SDS011;3952;48.364;16.022;2022-09-20T16:31:04;1.60;;;0.93;;
7813;SDS011;3952;48.364;16.022;2022-09-20T16:33:31;0.70;;;0.70;;
7813;SDS011;3952;48.364;16.022;2022-09-20T16:35:59;2.40;;;0.80;;
7813;SDS011;3952;48.364;16.022;2022-09-20T16:38:27;0.87;;;0.87;;
7813;SDS011;3952;48.364;16.022;2022-09-20T16:40:54;1.20;;;1.10;;
7813;SDS011;3952;48.364;16.022;2022-09-20T16:43:23;0.90;;;0.90;;
7813;SDS011;3952;48.364;16.022;2022-09-20T16:45:57;0.80;;;0.80;;
7813;SDS011;3952;48.364;16.022;2022-09-20T16:48:25;0.70;;;0.70;;
7813;SDS011;3952;48.364;16.022;2022-09-20T16:50:55;1.33;;;1.30;;
7813;SDS011;3952;48.364;16.022;2022-09-20T16:53:24;2.00;;;1.30;;
7813;SDS011;3952;48.364;16.022;2022-09-20T16:55:51;2.07;;;1.80;;
7813;SDS011;3952;48.364;16.022;2022-09-20T16:58:26;1.60;;;1.50;;
7813;SDS011;3952;48.364;16.022;2022-09-20T17:01:00;1.67;;;1.57;;